Air Navigation Services of Czech Republic
Airport: LKLN Updated:  19.01.2018 14:08:06  UTC
 METAR LKLN 19.01. 14:00 ...
METAR LKLN 191400Z AUTO 24010KT 210V270 9999 FEW015 SCT046 03/00 Q1008=